Time;durP1;ratioP1;P1;durP2;ratioP2;P2;SDS_P1;SDS_P2;PMS_P1;PMS_P2;Temp;Humidity;BMP_temperature;BMP_pressure;BME280_temperature;BME280_humidity;BME280_pressure;Samples;Min_cycle;Max_cycle;Signal;HPM_P1;HPM_P2
2020/12/26 00:01:21;;;;;;;41.10;18.65;;;;;;;1.63;100.00;99777.30;1788575;80;21252;-62
2020/12/26 00:03:50;;;;;;;32.40;16.17;;;;;;;1.64;100.00;99777.66;1782829;80;21156;-61
2020/12/26 00:06:20;;;;;;;34.48;16.52;;;;;;;1.66;100.00;99777.84;1778041;80;21089;-67
2020/12/26 00:08:50;;;;;;;30.43;14.47;;;;;;;1.66;100.00;99766.28;1782198;80;21093;-66
2020/12/26 00:11:19;;;;;;;33.60;14.98;;;;;;;1.68;100.00;99763.59;1785253;80;21635;-62
2020/12/26 00:13:49;;;;;;;39.95;17.23;;;;;;;1.70;100.00;99761.23;1786379;80;21379;-66
2020/12/26 00:16:18;;;;;;;31.30;15.53;;;;;;;1.72;100.00;99766.22;1755704;80;21243;-62
2020/12/26 00:18:46;;;;;;;20.57;11.40;;;;;;;1.72;100.00;99760.27;1746719;81;21503;-62
2020/12/26 00:21:17;;;;;;;23.70;12.75;;;;;;;1.73;100.00;99760.13;1746269;80;21027;-63
2020/12/26 00:23:45;;;;;;;28.73;13.83;;;;;;;1.75;100.00;99756.95;1754673;80;21113;-65
2020/12/26 00:26:15;;;;;;;23.05;12.93;;;;;;;1.76;100.00;99752.14;1746519;80;21201;-63
2020/12/26 00:28:44;;;;;;;24.27;12.13;;;;;;;1.77;100.00;99749.09;1750657;80;21065;-65
2020/12/26 00:31:19;;;;;;;21.95;11.12;;;;;;;1.79;100.00;99745.92;1747581;80;20925;-66
2020/12/26 00:33:47;;;;;;;17.90;9.30;;;;;;;1.79;100.00;99736.45;1747397;79;21041;-64
2020/12/26 00:36:16;;;;;;;16.60;9.48;;;;;;;1.81;100.00;99735.02;1752072;81;21198;-66
2020/12/26 00:38:46;;;;;;;15.32;9.68;;;;;;;1.84;100.00;99736.84;1751192;80;20976;-66
2020/12/26 00:41:14;;;;;;;17.45;9.83;;;;;;;1.85;100.00;99733.31;1755182;79;21055;-61
2020/12/26 00:43:42;;;;;;;14.63;8.05;;;;;;;1.87;100.00;99733.19;1755348;80;21597;-60
2020/12/26 00:46:10;;;;;;;15.30;8.55;;;;;;;1.90;100.00;99740.14;1745941;80;21186;-60
2020/12/26 00:48:39;;;;;;;15.00;8.15;;;;;;;1.90;100.00;99737.58;1756300;80;21004;-60
2020/12/26 00:51:11;;;;;;;12.43;7.90;;;;;;;1.93;100.00;99722.33;1757265;79;21680;-60
2020/12/26 00:53:40;;;;;;;13.35;7.87;;;;;;;1.93;100.00;99723.61;1729858;80;21688;-64
2020/12/26 00:56:09;;;;;;;12.23;8.83;;;;;;;1.95;100.00;99727.67;1731227;81;21044;-59
2020/12/26 00:58:38;;;;;;;11.00;7.10;;;;;;;1.97;100.00;99723.69;1729586;81;21020;-66
2020/12/26 01:01:07;;;;;;;12.90;7.17;;;;;;;1.98;100.00;99720.64;1719299;81;21258;-66
2020/12/26 01:03:48;;;;;;;12.23;7.63;;;;;;;2.03;100.00;99719.73;1873534;75;23274;-66
2020/12/26 01:06:17;;;;;;;11.78;6.80;;;;;;;2.00;100.00;99719.53;1821449;78;20973;-67
2020/12/26 01:08:45;;;;;;;10.40;6.67;;;;;;;2.01;100.00;99720.34;1815289;79;21355;-60
2020/12/26 01:11:13;;;;;;;10.20;7.05;;;;;;;2.01;100.00;99718.61;1787159;79;21010;-67
2020/12/26 01:13:42;;;;;;;10.10;6.78;;;;;;;2.02;100.00;99716.36;1819316;78;20970;-67
2020/12/26 01:16:13;;;;;;;9.85;6.72;;;;;;;2.02;100.00;99713.78;1811774;79;20977;-67
2020/12/26 01:18:43;;;;;;;10.35;5.90;;;;;;;2.06;100.00;99715.60;1794975;79;21001;-67
2020/12/26 01:21:14;;;;;;;8.60;6.20;;;;;;;2.07;100.00;99718.02;1822868;78;21193;-60
2020/12/26 01:23:42;;;;;;;10.18;5.92;;;;;;;2.09;100.00;99719.98;1815615;79;20990;-57
2020/12/26 01:26:11;;;;;;;9.10;5.78;;;;;;;2.13;100.00;99720.52;1791927;79;21053;-58
2020/12/26 01:28:39;;;;;;;8.58;5.60;;;;;;;2.15;100.00;99723.27;1765524;79;20981;-59
2020/12/26 01:31:08;;;;;;;7.58;5.30;;;;;;;2.20;100.00;99722.86;1810932;78;20994;-58
2020/12/26 01:33:36;;;;;;;8.88;6.28;;;;;;;2.22;100.00;99713.70;1775903;79;20979;-67
2020/12/26 01:36:05;;;;;;;6.90;5.05;;;;;;;2.26;100.00;99715.03;1790200;80;20998;-67
2020/12/26 01:38:34;;;;;;;6.62;4.22;;;;;;;2.31;100.00;99717.98;1809887;79;21168;-67
2020/12/26 01:41:02;;;;;;;5.72;3.52;;;;;;;2.33;100.00;99716.09;1780791;78;21012;-67
2020/12/26 01:43:30;;;;;;;6.53;4.08;;;;;;;2.34;100.00;99717.22;1820703;78;21021;-58
2020/12/26 01:45:58;;;;;;;7.60;5.10;;;;;;;2.36;100.00;99714.52;1819340;78;21209;-67
2020/12/26 01:48:27;;;;;;;7.55;5.17;;;;;;;2.38;100.00;99712.59;1782774;79;21085;-67
2020/12/26 01:50:55;;;;;;;6.53;4.30;;;;;;;2.41;100.00;99715.70;1794694;79;21010;-67
2020/12/26 01:53:24;;;;;;;6.05;4.25;;;;;;;2.44;100.00;99712.84;1819549;78;21041;-59
2020/12/26 01:55:52;;;;;;;5.30;3.50;;;;;;;2.49;100.00;99715.45;1822988;78;20985;-67
2020/12/26 01:58:20;;;;;;;5.45;3.42;;;;;;;2.51;100.00;99716.95;1817675;78;21217;-67
2020/12/26 02:00:48;;;;;;;6.25;4.05;;;;;;;2.54;100.00;99701.22;1792046;78;21116;-60
2020/12/26 02:03:16;;;;;;;5.12;3.35;;;;;;;2.56;100.00;99704.45;1806334;79;21076;-68
2020/12/26 02:05:44;;;;;;;5.47;3.27;;;;;;;2.57;100.00;99703.48;1812950;79;21030;-68
2020/12/26 02:08:13;;;;;;;5.42;3.72;;;;;;;2.61;100.00;99703.55;1813294;79;21029;-68
2020/12/26 02:10:43;;;;;;;6.47;3.90;;;;;;;2.62;100.00;99700.50;1817144;79;21187;-68
2020/12/26 02:13:11;;;;;;;5.87;3.70;;;;;;;2.64;100.00;99701.14;1811460;79;21014;-59
2020/12/26 02:15:40;;;;;;;5.28;3.20;;;;;;;2.66;100.00;99701.34;1814602;79;21101;-59
2020/12/26 02:18:08;;;;;;;5.62;3.35;;;;;;;2.68;100.00;99693.47;1811087;79;21117;-59
2020/12/26 02:20:38;;;;;;;6.53;3.58;;;;;;;2.70;100.00;99696.72;1813649;79;20963;-59
2020/12/26 02:23:06;;;;;;;6.85;3.47;;;;;;;2.72;100.00;99699.94;1805211;79;21142;-59
2020/12/26 02:25:34;;;;;;;6.58;3.37;;;;;;;2.74;100.00;99701.09;1814683;79;21022;-60
2020/12/26 02:28:03;;;;;;;5.25;3.20;;;;;;;2.77;100.00;99698.23;1806095;79;21010;-59
2020/12/26 02:30:31;;;;;;;6.00;3.15;;;;;;;2.78;100.00;99701.13;1810304;79;21071;-69
2020/12/26 02:32:59;;;;;;;4.67;3.30;;;;;;;2.79;100.00;99698.88;1811917;79;21084;-59
2020/12/26 02:35:27;;;;;;;5.15;3.40;;;;;;;2.80;100.00;99696.63;1811706;79;21267;-59
2020/12/26 02:37:56;;;;;;;4.08;2.52;;;;;;;2.81;100.00;99691.84;1814637;79;21061;-59
2020/12/26 02:40:24;;;;;;;4.28;2.98;;;;;;;2.81;100.00;99687.49;1812124;79;21618;-59
2020/12/26 02:42:52;;;;;;;4.80;2.90;;;;;;;2.82;100.00;99696.02;1814186;79;20990;-69
2020/12/26 02:45:20;;;;;;;5.53;3.70;;;;;;;2.83;100.00;99693.77;1809341;79;21207;-67
2020/12/26 02:47:48;;;;;;;4.17;2.72;;;;;;;2.82;100.00;99690.88;1812618;79;21365;-67
2020/12/26 02:50:16;;;;;;;4.15;2.98;;;;;;;2.83;100.00;99697.63;1812937;79;20962;-68
2020/12/26 02:52:45;;;;;;;4.58;3.00;;;;;;;2.83;100.00;99696.34;1811399;79;21021;-68
2020/12/26 02:55:15;;;;;;;4.37;3.00;;;;;;;2.84;100.00;99700.53;1808774;79;20954;-68
2020/12/26 02:57:44;;;;;;;5.25;3.62;;;;;;;2.84;100.00;99699.24;1810919;79;21033;-68
2020/12/26 03:00:12;;;;;;;5.92;3.45;;;;;;;2.84;100.00;99701.81;1802750;79;21255;-59
2020/12/26 03:02:40;;;;;;;4.53;3.37;;;;;;;2.86;100.00;99705.06;1815383;79;21156;-67
2020/12/26 03:05:08;;;;;;;4.83;3.10;;;;;;;2.86;100.00;99707.16;1810972;79;20962;-67
2020/12/26 03:07:38;;;;;;;5.58;4.47;;;;;;;2.89;100.00;99708.64;1814658;79;21145;-59
2020/12/26 03:10:06;;;;;;;5.45;3.20;;;;;;;2.92;100.00;99708.35;1811003;79;20974;-59
2020/12/26 03:12:34;;;;;;;5.42;3.33;;;;;;;2.97;100.00;99707.42;1815695;79;21186;-66
2020/12/26 03:15:03;;;;;;;7.37;4.33;;;;;;;3.02;100.00;99710.83;1809378;79;21053;-66
2020/12/26 03:17:31;;;;;;;7.20;4.15;;;;;;;3.04;100.00;99708.94;1806828;79;21033;-59
2020/12/26 03:19:59;;;;;;;5.72;3.12;;;;;;;3.05;100.00;99707.48;1807067;79;21267;-59
2020/12/26 03:22:28;;;;;;;4.62;2.58;;;;;;;3.06;100.00;99706.52;1812385;79;21065;-67
2020/12/26 03:24:56;;;;;;;5.12;2.62;;;;;;;3.08;100.00;99704.63;1806344;79;21192;-66
2020/12/26 03:27:24;;;;;;;8.93;6.62;;;;;;;3.09;100.00;99706.23;1812412;79;21010;-66
2020/12/26 03:29:53;;;;;;;42.23;23.95;;;;;;;3.11;100.00;99703.53;1815104;79;21026;-67
2020/12/26 03:32:21;;;;;;;59.98;32.53;;;;;;;3.12;100.00;99699.50;1807431;79;20946;-58
2020/12/26 03:34:49;;;;;;;74.27;38.13;;;;;;;3.13;100.00;99698.54;1807488;79;20983;-58
2020/12/26 03:37:17;;;;;;;10.32;6.60;;;;;;;3.15;100.00;99701.79;1811653;79;21261;-66
2020/12/26 03:39:46;;;;;;;11.25;6.37;;;;;;;3.15;100.00;99708.23;1809845;79;20970;-58
2020/12/26 03:42:14;;;;;;;15.10;9.60;;;;;;;3.15;100.00;99697.92;1807156;79;21053;-59
2020/12/26 03:44:42;;;;;;;14.00;8.43;;;;;;;3.18;100.00;99704.52;1815951;79;21010;-66
2020/12/26 03:47:11;;;;;;;18.32;9.60;;;;;;;3.20;100.00;99703.91;1810621;79;21255;-59
2020/12/26 03:49:39;;;;;;;29.82;13.75;;;;;;;3.21;100.00;99704.23;1810067;79;21195;-66
2020/12/26 03:52:07;;;;;;;83.05;36.53;;;;;;;3.23;100.00;99699.76;1808342;79;21085;-60
2020/12/26 03:54:35;;;;;;;74.32;29.67;;;;;;;3.24;100.00;99701.37;1813593;79;20947;-67
2020/12/26 03:57:04;;;;;;;30.32;16.12;;;;;;;3.26;100.00;99708.93;1809886;79;21157;-59
2020/12/26 03:59:32;;;;;;;19.12;10.38;;;;;;;3.28;100.00;99705.73;1808395;79;20951;-59
2020/12/26 04:02:00;;;;;;;11.97;7.10;;;;;;;3.29;100.00;99708.64;1811116;79;21193;-66
2020/12/26 04:04:28;;;;;;;13.65;7.35;;;;;;;3.29;100.00;99709.92;1812638;79;21002;-66
2020/12/26 04:06:57;;;;;;;8.40;5.58;;;;;;;3.30;100.00;99711.56;1808705;79;21007;-60
2020/12/26 04:09:25;;;;;;;5.90;4.30;;;;;;;3.31;100.00;99706.73;1808876;79;21041;-66
2020/12/26 04:11:54;;;;;;;6.00;4.05;;;;;;;3.32;100.00;99710.92;1792199;79;21152;-66
2020/12/26 04:14:22;;;;;;;6.00;4.22;;;;;;;3.32;100.00;99714.30;1821931;77;21434;-66
2020/12/26 04:17:00;;;;;;;5.70;3.85;;;;;;;3.35;100.00;99715.78;1813742;79;21045;-66
2020/12/26 04:19:28;;;;;;;7.33;5.62;;;;;;;3.37;100.00;99716.42;1793873;79;21124;-66
2020/12/26 04:21:56;;;;;;;10.15;7.08;;;;;;;3.39;100.00;99713.23;1821572;78;21116;-60
2020/12/26 04:24:24;;;;;;;10.88;7.65;;;;;;;3.42;100.00;99710.36;1811681;79;21077;-60
2020/12/26 04:26:52;;;;;;;9.58;7.12;;;;;;;3.45;100.00;99709.23;1787734;79;21199;-66
2020/12/26 04:29:21;;;;;;;10.10;7.70;;;;;;;3.47;100.00;99706.84;1809721;78;21393;-67
2020/12/26 04:31:51;;;;;;;9.13;5.83;;;;;;;3.49;100.00;99702.36;1814852;79;21045;-67
2020/12/26 04:34:19;;;;;;;7.65;4.95;;;;;;;3.52;100.00;99705.09;1787125;79;21046;-60
2020/12/26 04:36:47;;;;;;;6.95;4.87;;;;;;;3.54;100.00;99709.16;1819276;78;21104;-60
2020/12/26 04:39:15;;;;;;;7.72;4.78;;;;;;;3.55;100.00;99717.20;1808663;79;21362;-66
2020/12/26 04:41:44;;;;;;;8.45;4.42;;;;;;;3.54;100.00;99717.37;1824579;78;21029;-59
2020/12/26 04:44:13;;;;;;;5.92;4.08;;;;;;;3.53;100.00;99717.85;1787170;78;21159;-68
2020/12/26 04:46:42;;;;;;;5.75;3.55;;;;;;;3.53;100.00;99722.20;1790216;78;21033;-67
2020/12/26 04:49:11;;;;;;;7.87;4.92;;;;;;;3.52;100.00;99727.80;1789877;78;21081;-61
2020/12/26 04:51:41;;;;;;;47.03;20.85;;;;;;;3.51;100.00;99727.48;1792403;78;22210;-66
2020/12/26 04:54:25;;;;;;;62.60;27.37;;;;;;;3.51;100.00;99723.62;1789680;79;20992;-66
2020/12/26 04:57:01;;;;;;;20.77;11.27;;;;;;;3.56;100.00;99724.45;1875674;76;22768;-61
2020/12/26 04:59:29;;;;;;;17.37;9.03;;;;;;;3.52;100.00;99733.44;1842203;77;20938;-69
2020/12/26 05:01:57;;;;;;;28.55;14.15;;;;;;;3.53;100.00;99737.17;1849375;77;21375;-67
2020/12/26 05:04:26;;;;;;;24.45;13.50;;;;;;;3.55;100.00;99737.82;1815427;77;21623;-60
2020/12/26 05:06:54;;;;;;;13.88;8.08;;;;;;;3.57;100.00;99740.27;1843721;77;21025;-68
2020/12/26 05:09:22;;;;;;;10.20;6.15;;;;;;;3.57;100.00;99733.82;1843920;77;21007;-62
2020/12/26 05:11:57;;;;;;;8.25;5.70;;;;;;;3.59;100.00;99745.58;1849463;77;21044;-61
2020/12/26 05:14:27;;;;;;;7.53;5.97;;;;;;;3.60;100.00;99745.92;1845113;77;23302;-67
2020/12/26 05:16:56;;;;;;;9.18;6.70;;;;;;;3.60;100.00;99742.55;1845530;77;21033;-60
2020/12/26 05:19:24;;;;;;;9.33;7.00;;;;;;;3.59;100.00;99741.71;1847677;77;20986;-67
2020/12/26 05:21:55;;;;;;;10.55;7.28;;;;;;;3.61;100.00;99746.25;1850548;77;21622;-66
2020/12/26 05:24:23;;;;;;;10.08;7.95;;;;;;;3.61;100.00;99742.38;1845069;77;21066;-60
2020/12/26 05:26:53;;;;;;;9.65;7.67;;;;;;;3.61;100.00;99742.87;1843063;77;21192;-68
2020/12/26 05:29:22;;;;;;;11.48;8.63;;;;;;;3.60;100.00;99748.51;1848786;77;21009;-67
2020/12/26 05:31:59;;;;;;;10.13;8.68;;;;;;;3.60;100.00;99749.80;1849878;77;21243;-61
2020/12/26 05:34:35;;;;;;;11.85;8.70;;;;;;;3.59;100.00;99755.88;1846393;77;21021;-67
2020/12/26 05:37:04;;;;;;;11.08;8.08;;;;;;;3.57;100.00;99753.95;1844214;77;21589;-67
2020/12/26 05:39:36;;;;;;;10.70;7.20;;;;;;;3.57;100.00;99757.82;1847270;77;22075;-67
2020/12/26 05:42:04;;;;;;;9.95;7.12;;;;;;;3.57;100.00;99756.53;1851792;77;21013;-62
2020/12/26 05:44:37;;;;;;;8.30;5.90;;;;;;;3.54;100.00;99759.40;1853786;77;20981;-61
2020/12/26 05:47:06;;;;;;;8.73;6.30;;;;;;;3.53;100.00;99768.10;1849856;77;21602;-66
2020/12/26 05:49:39;;;;;;;8.70;5.60;;;;;;;3.52;100.00;99761.78;1847419;77;21067;-66
2020/12/26 05:52:09;;;;;;;6.85;5.05;;;;;;;3.51;100.00;99766.14;1845824;77;22078;-65
2020/12/26 05:54:38;;;;;;;7.50;5.20;;;;;;;3.50;100.00;99765.81;1850823;77;21112;-67
2020/12/26 05:57:11;;;;;;;6.97;4.90;;;;;;;3.51;100.00;99774.34;1843355;77;21215;-66
2020/12/26 05:59:41;;;;;;;6.50;4.40;;;;;;;3.50;100.00;99773.55;1849860;77;21069;-60
2020/12/26 06:02:29;;;;;;;7.28;4.62;;;;;;;3.49;100.00;99771.94;1844862;77;21160;-61
2020/12/26 06:05:03;;;;;;;8.28;5.37;;;;;;;3.48;100.00;99776.73;1852079;77;21177;-60
2020/12/26 06:07:33;;;;;;;6.80;5.42;;;;;;;3.48;100.00;99781.08;1848312;77;21073;-62
2020/12/26 06:10:04;;;;;;;6.83;5.20;;;;;;;3.46;100.00;99783.83;1847195;77;21103;-63
2020/12/26 06:12:35;;;;;;;7.03;5.42;;;;;;;3.47;100.00;99785.91;1847096;77;21192;-62
2020/12/26 06:15:03;;;;;;;7.33;4.45;;;;;;;3.47;100.00;99787.20;1850074;77;21184;-66
2020/12/26 06:17:33;;;;;;;5.72;3.72;;;;;;;3.45;100.00;99780.09;1846925;77;21122;-65
2020/12/26 06:20:05;;;;;;;5.80;4.60;;;;;;;3.44;100.00;99789.59;1845191;77;20970;-65
2020/12/26 06:22:48;;;;;;;7.35;4.92;;;;;;;3.45;100.00;99789.11;1842719;77;20954;-61
2020/12/26 06:25:23;;;;;;;8.50;5.80;;;;;;;3.46;100.00;99799.77;1850194;77;20903;-59
2020/12/26 06:28:00;;;;;;;8.55;5.37;;;;;;;3.46;100.00;99799.28;1844883;77;20990;-64
2020/12/26 06:30:29;;;;;;;7.25;5.30;;;;;;;3.47;100.00;99804.76;1851281;77;21323;-60
2020/12/26 06:32:58;;;;;;;9.28;5.80;;;;;;;3.48;100.00;99802.50;1850053;77;21080;-65
2020/12/26 06:35:27;;;;;;;8.63;5.80;;;;;;;3.49;100.00;99804.14;1846689;77;21432;-65
2020/12/26 06:38:16;;;;;;;9.53;5.72;;;;;;;3.51;100.00;99802.70;1842642;77;21001;-66
2020/12/26 06:40:55;;;;;;;8.23;5.33;;;;;;;3.52;100.00;99797.86;1844228;77;20986;-63
2020/12/26 06:43:46;;;;;;;10.85;6.08;;;;;;;3.53;100.00;99793.06;1848579;77;21187;-60
2020/12/26 06:46:22;;;;;;;7.97;5.05;;;;;;;3.53;100.00;99787.91;1844008;77;20966;-60
2020/12/26 06:48:52;;;;;;;7.40;5.20;;;;;;;3.55;100.00;99797.09;1838371;77;20951;-60
2020/12/26 06:51:32;;;;;;;7.08;4.45;;;;;;;3.54;100.00;99789.03;1850656;77;20958;-60
2020/12/26 06:54:04;;;;;;;6.42;4.33;;;;;;;3.54;100.00;99801.92;1840227;77;21045;-61
2020/12/26 06:56:43;;;;;;;6.30;3.75;;;;;;;3.54;100.00;99803.21;1849714;77;21144;-61
2020/12/26 06:59:12;;;;;;;5.60;3.42;;;;;;;3.53;100.00;99810.62;1840712;77;21057;-64
2020/12/26 07:01:45;;;;;;;5.50;4.00;;;;;;;3.51;100.00;99810.42;1834298;77;21555;-63
2020/12/26 07:04:18;;;;;;;5.45;3.40;;;;;;;3.50;100.00;99813.48;1829404;77;20938;-65
2020/12/26 07:06:52;;;;;;;6.28;4.33;;;;;;;3.46;100.00;99821.19;1837567;77;21515;-63
2020/12/26 07:09:39;;;;;;;7.03;4.85;;;;;;;3.45;100.00;99813.13;1835212;77;22096;-63
2020/12/26 07:12:08;;;;;;;8.48;5.45;;;;;;;3.44;100.00;99820.98;1835842;77;21137;-64
2020/12/26 07:14:43;;;;;;;9.55;6.12;;;;;;;3.40;100.00;99819.19;1839143;77;20966;-61
2020/12/26 07:17:17;;;;;;;10.60;6.30;;;;;;;3.39;100.00;99818.86;1847111;77;20942;-64
2020/12/26 07:19:47;;;;;;;10.93;6.70;;;;;;;3.38;100.00;99827.08;1841951;77;21148;-61
2020/12/26 07:22:28;;;;;;;10.15;6.42;;;;;;;3.38;100.00;99827.08;1849558;77;21197;-61
2020/12/26 07:25:07;;;;;;;11.22;6.37;;;;;;;3.40;100.00;99834.64;1843312;77;21251;-60
2020/12/26 07:27:39;;;;;;;9.45;5.15;;;;;;;3.44;100.00;99830.01;1843354;77;21021;-61
2020/12/26 07:30:18;;;;;;;9.38;5.87;;;;;;;3.48;100.00;99831.33;1844771;77;20942;-63
2020/12/26 07:32:58;;;;;;;8.80;5.25;;;;;;;3.50;100.00;99827.66;1851200;77;20954;-60
2020/12/26 07:35:30;;;;;;;;;;;;;;;3.56;100.00;99836.55;1847958;77;21467;-64
2020/12/26 07:38:07;;;;;;;5.80;2.83;;;;;;;3.62;100.00;99840.64;1852766;77;20130;-65
2020/12/26 07:40:45;;;;;;;5.83;3.30;;;;;;;3.65;100.00;99840.34;1842556;77;20978;-65
2020/12/26 07:43:14;;;;;;;4.97;2.70;;;;;;;3.65;100.00;99842.13;1851144;77;20883;-64
2020/12/26 07:45:44;;;;;;;7.15;2.92;;;;;;;3.65;100.00;99854.53;1840783;77;21014;-61
2020/12/26 07:48:12;;;;;;;5.37;3.20;;;;;;;3.64;100.00;99854.20;1846852;77;22251;-60
2020/12/26 07:50:42;;;;;;;6.40;3.35;;;;;;;3.63;100.00;99853.85;1845405;77;20954;-63
2020/12/26 07:53:13;;;;;;;3.80;1.82;;;;;;;3.60;100.00;99863.67;1850933;77;21005;-63
2020/12/26 07:55:41;;;;;;;3.22;1.67;;;;;;;3.57;100.00;99865.25;1844065;77;21013;-60
2020/12/26 07:58:12;;;;;;;4.62;1.92;;;;;;;3.52;100.00;99863.09;1849703;77;21578;-63
2020/12/26 08:00:43;;;;;;;3.25;1.80;;;;;;;3.48;100.00;99879.80;1847362;77;21174;-64
2020/12/26 08:03:12;;;;;;;3.98;2.00;;;;;;;3.41;100.00;99887.33;1849071;77;21490;-64
2020/12/26 08:05:47;;;;;;;;;;;;;;;3.34;100.00;99880.33;1850882;77;21077;-64
2020/12/26 08:08:27;;;;;;;4.17;1.98;;;;;;;3.28;100.00;99891.20;1848758;77;20181;-63
2020/12/26 08:10:58;;;;;;;2.90;1.87;;;;;;;3.20;100.00;99883.39;1846804;77;21120;-64
2020/12/26 08:13:29;;;;;;;3.15;1.60;;;;;;;3.12;100.00;99887.50;1849113;77;22331;-65
2020/12/26 08:16:05;;;;;;;3.52;1.60;;;;;;;3.07;100.00;99892.73;1847979;77;21057;-64
2020/12/26 08:18:35;;;;;;;3.45;1.67;;;;;;;3.00;100.00;99894.28;1847045;77;21688;-64
2020/12/26 08:21:06;;;;;;;3.65;2.00;;;;;;;2.92;100.00;99901.43;1848698;77;21149;-64
2020/12/26 08:23:34;;;;;;;5.00;2.05;;;;;;;2.86;100.00;99904.56;1840753;77;21034;-64
2020/12/26 08:26:02;;;;;;;4.87;2.52;;;;;;;2.81;100.00;99891.31;1846499;77;21186;-64
2020/12/26 08:28:31;;;;;;;6.12;2.80;;;;;;;2.76;100.00;99887.05;1846948;77;20947;-64
2020/12/26 08:31:02;;;;;;;5.20;2.52;;;;;;;2.73;100.00;99889.45;1847920;77;21116;-60
2020/12/26 08:33:36;;;;;;;5.42;2.75;;;;;;;2.71;100.00;99902.11;1821808;77;21076;-60
2020/12/26 08:36:10;;;;;;;4.75;2.50;;;;;;;2.68;100.00;99906.58;1846892;77;21069;-65
2020/12/26 08:38:48;;;;;;;4.97;2.50;;;;;;;2.66;100.00;99912.35;1843154;77;21366;-63
2020/12/26 08:41:18;;;;;;;6.35;3.17;;;;;;;2.64;100.00;99911.67;1845883;77;21037;-63
2020/12/26 08:43:46;;;;;;;4.50;2.42;;;;;;;2.64;100.00;99902.66;1848737;77;21128;-64
2020/12/26 08:46:16;;;;;;;3.98;2.20;;;;;;;2.63;100.00;99911.34;1848371;77;21024;-60
2020/12/26 08:48:44;;;;;;;4.80;2.08;;;;;;;2.62;100.00;99912.30;1847790;77;21049;-63
2020/12/26 08:51:25;;;;;;;3.65;1.90;;;;;;;2.62;100.00;99917.45;1847718;77;21193;-65
2020/12/26 08:53:56;;;;;;;4.35;2.30;;;;;;;2.63;100.00;99926.78;1848852;77;21463;-60
2020/12/26 08:56:35;;;;;;;5.45;2.35;;;;;;;2.63;100.00;99940.13;1777655;80;21182;-64
2020/12/26 08:59:03;;;;;;;4.75;2.00;;;;;;;2.62;100.00;99929.51;1779765;80;21023;-64
2020/12/26 09:01:34;;;;;;;4.12;1.95;;;;;;;2.59;100.00;99929.30;1789199;80;21109;-64
2020/12/26 09:04:15;;;;;;;4.30;2.17;;;;;;;2.58;100.00;99925.59;1802400;79;21547;-66
2020/12/26 09:06:44;;;;;;;3.60;1.80;;;;;;;2.55;100.00;99927.96;1776482;80;21038;-65
2020/12/26 09:09:23;;;;;;;3.00;1.75;;;;;;;2.55;100.00;99936.16;1779261;80;20958;-65
2020/12/26 09:12:02;;;;;;;3.08;1.77;;;;;;;2.52;100.00;99941.09;1793836;79;21002;-64
2020/12/26 09:14:30;;;;;;;2.72;1.10;;;;;;;2.50;100.00;99932.72;1776986;80;21070;-64
2020/12/26 09:17:01;;;;;;;2.75;1.40;;;;;;;2.51;100.00;99933.53;1782444;80;21200;-65
2020/12/26 09:19:44;;;;;;;3.67;1.87;;;;;;;2.49;100.00;99932.84;1780044;80;21101;-65
2020/12/26 09:22:12;;;;;;;2.70;1.40;;;;;;;2.50;100.00;99941.73;1808245;79;21066;-64
2020/12/26 09:24:40;;;;;;;2.55;1.47;;;;;;;2.51;100.00;99943.34;1777034;80;21252;-65
2020/12/26 09:27:21;;;;;;;2.50;1.20;;;;;;;2.51;100.00;99944.62;1778969;80;21085;-64
2020/12/26 09:29:54;;;;;;;3.27;1.52;;;;;;;2.53;100.00;99947.86;1775636;80;21215;-63
2020/12/26 09:32:20;;;;;;;4.37;1.40;;;;;;;2.55;100.00;99949.83;1795305;79;20991;-58
2020/12/26 09:34:49;;;;;;;6.17;3.42;;;;;;;2.56;100.00;99947.59;1775871;80;21120;-62
2020/12/26 09:37:17;;;;;;;3.60;1.75;;;;;;;2.61;100.00;99954.43;1806841;79;21309;-58
2020/12/26 09:39:46;;;;;;;4.87;2.12;;;;;;;2.66;100.00;99969.45;1789643;80;21507;-63
2020/12/26 09:42:14;;;;;;;2.85;1.30;;;;;;;2.71;100.00;99981.89;1739910;79;21705;-57
2020/12/26 09:44:42;;;;;;;3.72;1.57;;;;;;;2.71;100.00;99984.47;1775731;80;21188;-62
2020/12/26 09:47:10;;;;;;;3.00;1.65;;;;;;;2.67;100.00;99983.93;1807325;79;21077;-63
2020/12/26 09:49:39;;;;;;;3.90;2.05;;;;;;;2.62;100.00;99990.78;1777833;80;21121;-64
2020/12/26 09:52:07;;;;;;;4.58;2.62;;;;;;;2.58;100.00;99990.73;1800777;79;21160;-58
2020/12/26 09:54:37;;;;;;;3.27;2.00;;;;;;;2.54;100.00;99980.38;1786687;80;21359;-57
2020/12/26 09:57:05;;;;;;;2.15;1.10;;;;;;;2.51;100.00;99985.80;1792133;80;20998;-57
2020/12/26 09:59:33;;;;;;;3.47;1.70;;;;;;;2.52;100.00;99998.17;1782330;78;21586;-63
2020/12/26 10:02:01;;;;;;;3.22;1.82;;;;;;;2.51;100.00;100001.23;1805683;79;20991;-63
2020/12/26 10:04:29;;;;;;;3.05;1.72;;;;;;;2.53;100.00;100003.17;1788659;80;21088;-63
2020/12/26 10:06:57;;;;;;;4.58;2.25;;;;;;;2.55;100.00;99998.72;1789461;80;21205;-57
2020/12/26 10:09:26;;;;;;;4.42;2.10;;;;;;;2.58;100.00;99986.06;1791311;79;21069;-57
2020/12/26 10:11:54;;;;;;;5.97;2.35;;;;;;;2.62;100.00;99986.92;1807512;79;21141;-61
2020/12/26 10:14:22;;;;;;;3.67;2.10;;;;;;;2.67;100.00;99982.64;1780020;80;21244;-56
2020/12/26 10:16:52;;;;;;;4.28;2.60;;;;;;;2.75;100.00;99983.23;1807058;79;20958;-62
2020/12/26 10:19:20;;;;;;;3.92;2.10;;;;;;;2.84;100.00;99988.38;1778830;80;21272;-62
2020/12/26 10:21:52;;;;;;;5.50;2.45;;;;;;;2.94;100.00;99992.19;1781638;80;21113;-54
2020/12/26 10:24:20;;;;;;;;;;;;;;;3.01;100.00;99989.39;1808155;79;21631;-63
2020/12/26 10:26:50;;;;;;;5.70;3.35;;;;;;;3.02;100.00;99992.30;1780619;79;20125;-56
2020/12/26 10:29:18;;;;;;;4.78;2.77;;;;;;;3.04;100.00;99984.45;1776933;80;21110;-64
2020/12/26 10:31:46;;;;;;;5.55;2.87;;;;;;;3.08;100.00;99972.91;1788874;80;21200;-65
2020/12/26 10:34:15;;;;;;;7.80;4.47;;;;;;;3.06;100.00;99974.32;1802846;79;21160;-57
2020/12/26 10:36:43;;;;;;;5.22;3.35;;;;;;;3.06;100.00;99973.52;1791450;79;21159;-56
2020/12/26 10:39:11;;;;;;;12.05;9.68;;;;;;;3.09;100.00;99963.74;1810521;79;20919;-57
2020/12/26 10:41:44;;;;;;;13.18;7.45;;;;;;;3.11;100.00;99976.02;1774007;80;21176;-58
2020/12/26 10:44:12;;;;;;;6.85;4.20;;;;;;;3.14;100.00;99973.16;1810855;79;21267;-63
2020/12/26 10:46:42;;;;;;;6.12;3.98;;;;;;;3.12;100.00;99962.18;1780308;80;21189;-63
2020/12/26 10:49:11;;;;;;;8.93;4.97;;;;;;;3.12;100.00;99977.63;1806219;79;21124;-57
2020/12/26 10:51:39;;;;;;;6.12;4.22;;;;;;;3.17;100.00;99978.01;1777424;80;21101;-57
2020/12/26 10:54:08;;;;;;;6.60;4.47;;;;;;;3.21;100.00;99990.12;1780489;80;21137;-63
2020/12/26 10:56:36;;;;;;;6.62;4.03;;;;;;;3.25;100.00;100008.69;1805885;79;21357;-62
2020/12/26 10:59:04;;;;;;;4.67;3.17;;;;;;;3.26;100.00;100035.61;1782948;80;21176;-56
2020/12/26 11:01:33;;;;;;;6.12;4.35;;;;;;;3.25;100.00;100043.46;1805834;79;20995;-62
2020/12/26 11:04:01;;;;;;;7.17;4.17;;;;;;;3.25;100.00;100047.33;1777493;80;21606;-61
2020/12/26 11:06:29;;;;;;;6.87;4.28;;;;;;;3.24;100.00;100044.42;1802295;79;21181;-62
2020/12/26 11:08:57;;;;;;;6.75;4.30;;;;;;;3.22;100.00;100036.01;1780963;80;21358;-63
2020/12/26 11:11:26;;;;;;;7.08;4.25;;;;;;;3.19;100.00;100019.58;1788445;79;21306;-63
2020/12/26 11:13:56;;;;;;;7.50;4.00;;;;;;;3.18;100.00;100017.45;1798969;79;21141;-56
2020/12/26 11:16:27;;;;;;;7.08;4.10;;;;;;;3.20;100.00;100023.77;1775786;80;21187;-56
2020/12/26 11:18:55;;;;;;;7.03;4.70;;;;;;;3.20;100.00;100030.20;1781509;80;21140;-64
2020/12/26 11:21:23;;;;;;;4.62;3.27;;;;;;;3.17;100.00;100038.53;1805975;79;22503;-63
2020/12/26 11:23:51;;;;;;;5.33;3.40;;;;;;;3.13;100.00;100031.23;1788184;80;21467;-63
2020/12/26 11:26:21;;;;;;;6.72;4.45;;;;;;;3.09;100.00;100015.73;1790617;80;21097;-63
2020/12/26 11:28:50;;;;;;;12.47;6.37;;;;;;;3.11;100.00;100008.69;1807042;79;21085;-56
2020/12/26 11:31:23;;;;;;;8.88;5.10;;;;;;;3.09;100.00;100020.40;1780527;80;21527;-63
2020/12/26 11:33:51;;;;;;;6.45;3.92;;;;;;;3.07;100.00;100021.03;1777747;80;21451;-56
2020/12/26 11:36:24;;;;;;;7.40;4.42;;;;;;;3.07;100.00;100015.88;1808156;79;21133;-56
2020/12/26 11:38:53;;;;;;;6.30;4.40;;;;;;;3.09;100.00;100020.88;1773246;80;21105;-56
2020/12/26 11:41:23;;;;;;;8.63;4.85;;;;;;;3.14;100.00;100033.69;1782230;80;21160;-62
2020/12/26 11:43:52;;;;;;;5.85;4.40;;;;;;;3.24;100.00;100045.70;1806359;79;20950;-62
2020/12/26 11:46:20;;;;;;;5.00;3.60;;;;;;;3.32;100.00;100058.70;1782390;80;21208;-62